createdAt,value
2022-10-19T00:02:24.743Z,30.00
2022-10-19T00:12:31.710Z,29.20
2022-10-19T00:22:42.038Z,28.50
2022-10-19T00:32:49.140Z,28.20
2022-10-19T00:42:59.989Z,27.90
2022-10-19T00:53:07.204Z,27.30
2022-10-19T01:03:16.963Z,25.80
2022-10-19T01:13:35.986Z,25.20
2022-10-19T01:24:14.017Z,25.00
2022-10-19T01:34:29.262Z,24.50
2022-10-19T01:44:42.867Z,24.20
2022-10-19T01:54:58.330Z,24.10
2022-10-19T02:05:07.854Z,24.20
2022-10-19T02:15:20.152Z,24.30
2022-10-19T02:25:28.114Z,24.30
2022-10-19T02:35:40.414Z,24.20
2022-10-19T02:45:54.251Z,24.20
2022-10-19T02:56:03.300Z,24.30
2022-10-19T03:06:10.318Z,24.30
2022-10-19T03:16:18.895Z,24.30
2022-10-19T03:26:26.033Z,24.40
2022-10-19T03:36:36.038Z,24.40
2022-10-19T03:46:43.398Z,24.40
2022-10-19T03:56:52.117Z,24.40
2022-10-19T04:06:59.131Z,24.40
2022-10-19T04:17:20.785Z,24.30
2022-10-19T04:27:39.528Z,24.30
2022-10-19T04:37:48.333Z,24.20
2022-10-19T04:48:21.019Z,24.20
2022-10-19T04:58:30.712Z,24.20
2022-10-19T05:08:38.396Z,24.20
2022-10-19T05:18:51.657Z,24.20
2022-10-19T05:29:02.538Z,24.30
2022-10-19T05:39:14.905Z,24.30
2022-10-19T05:49:24.327Z,24.30
2022-10-19T05:59:33.098Z,24.20
2022-10-19T06:09:46.875Z,24.20
2022-10-19T06:19:56.086Z,24.20
2022-10-19T06:30:04.645Z,24.30
2022-10-19T06:40:14.198Z,24.30
2022-10-19T06:50:21.700Z,24.30
2022-10-19T07:00:34.145Z,24.20
2022-10-19T07:10:41.305Z,24.10
2022-10-19T07:20:57.846Z,24.00
2022-10-19T07:31:15.477Z,24.00
2022-10-19T07:41:25.848Z,23.90
2022-10-19T07:51:33.085Z,23.90
2022-10-19T08:01:46.889Z,23.80
2022-10-19T08:12:15.415Z,23.80
2022-10-19T08:22:30.136Z,23.70
2022-10-19T08:33:37.529Z,23.70
2022-10-19T08:43:59.034Z,23.60
2022-10-19T08:54:13.139Z,23.60
2022-10-19T09:04:28.585Z,23.60
2022-10-19T09:14:43.594Z,23.60
2022-10-19T09:24:55.125Z,23.60
2022-10-19T09:35:05.072Z,23.50
2022-10-19T09:46:09.521Z,23.50
2022-10-19T09:56:25.685Z,23.50
2022-10-19T10:06:34.386Z,23.50
2022-10-19T10:16:41.736Z,23.50
2022-10-19T10:26:52.033Z,23.50
2022-10-19T10:36:59.504Z,23.50
2022-10-19T10:58:48.696Z,23.40
2022-10-19T11:09:09.225Z,23.40
2022-10-19T11:19:24.373Z,23.40
2022-10-19T11:29:51.629Z,23.40
2022-10-19T11:40:11.534Z,23.40
2022-10-19T11:50:32.549Z,23.30
2022-10-19T12:00:45.361Z,23.30
2022-10-19T12:11:27.197Z,23.30
2022-10-19T12:21:37.250Z,23.30
2022-10-19T12:31:47.007Z,23.30
2022-10-19T12:42:25.855Z,23.30
2022-10-19T12:52:43.882Z,23.30
2022-10-19T13:02:59.692Z,23.30
2022-10-19T13:13:08.648Z,23.20
2022-10-19T13:23:40.923Z,23.20
2022-10-19T13:33:58.026Z,23.20
2022-10-19T13:44:19.246Z,23.20
2022-10-19T13:54:40.361Z,23.20
2022-10-19T14:05:10.404Z,23.20
2022-10-19T14:15:29.017Z,23.30
2022-10-19T14:25:36.311Z,23.20
2022-10-19T14:35:51.728Z,23.30
2022-10-19T14:46:17.357Z,23.50
2022-10-19T14:56:29.994Z,23.50
2022-10-19T15:06:43.451Z,23.60
2022-10-19T15:16:55.658Z,23.70
2022-10-19T15:27:16.061Z,23.70
2022-10-19T15:47:38.673Z,23.50
2022-10-19T15:57:47.347Z,23.30
2022-10-19T16:07:54.189Z,23.10
2022-10-19T16:18:03.975Z,23.00
2022-10-19T16:28:11.316Z,22.90
2022-10-19T16:38:20.465Z,22.90
2022-10-19T16:48:27.757Z,22.90
2022-10-19T16:58:37.382Z,22.90
2022-10-19T17:09:14.718Z,22.60
2022-10-19T17:19:14.443Z,22.40
2022-10-19T17:29:22.981Z,22.40
2022-10-19T17:39:32.153Z,22.50
2022-10-19T17:49:40.083Z,22.20
2022-10-19T17:59:52.922Z,22.10
2022-10-19T18:10:00.250Z,22.00
2022-10-19T18:20:10.141Z,22.00
2022-10-19T18:30:17.216Z,21.90
2022-10-19T18:40:26.815Z,21.80
2022-10-19T18:50:33.915Z,21.70
2022-10-19T19:00:45.714Z,21.60
2022-10-19T19:10:56.717Z,21.50
2022-10-19T19:21:18.437Z,21.50
2022-10-19T19:31:29.424Z,21.50
2022-10-19T19:41:43.493Z,21.40
2022-10-19T19:51:54.437Z,21.30
2022-10-19T20:02:07.665Z,21.20
2022-10-19T20:12:18.833Z,21.30
2022-10-19T20:22:31.412Z,21.20
2022-10-19T20:32:42.133Z,21.00
2022-10-19T20:42:57.895Z,21.10
2022-10-19T20:53:07.181Z,21.10
2022-10-19T21:03:23.367Z,21.20
2022-10-19T21:13:34.123Z,21.30
2022-10-19T21:23:45.543Z,21.20
2022-10-19T21:33:55.682Z,21.20
2022-10-19T21:44:08.126Z,21.20
2022-10-19T21:54:18.812Z,21.20
2022-10-19T22:04:33.220Z,21.50
2022-10-19T22:14:48.758Z,21.60
2022-10-19T22:25:02.258Z,21.50
2022-10-19T22:35:15.985Z,21.50
2022-10-19T22:45:25.967Z,21.50
2022-10-19T22:55:35.134Z,21.50
2022-10-19T23:05:43.812Z,21.50
2022-10-19T23:15:51.966Z,21.30
2022-10-19T23:26:06.458Z,21.60
2022-10-19T23:36:17.233Z,21.50
2022-10-19T23:46:32.819Z,21.40
2022-10-19T23:56:43.750Z,21.80
